Latest Weather Observations for Parawa West

IDS60901

Issued at 11:51 am CST Friday 27 May 2016 (issued every 10 minutes, with the page automatically refreshed every 10 minutes)

About weather observations | Map of Adelaide area stations | Latest observations for Adelaide area | Other Formats
Station Details ID: 023875 Name: SECOND VALLEY FOREST AWS Lat: -35.57 Lon: 138.29 Height: 341.0 m
Data from the previous 72 hours. | See also: Recent months at Parawa West
Date/Time
CST
Tmp

°C
App
Tmp
°C
Dew
Point
°C
Rel
Hum
%
Delta-T

°C
Wind Press
QNH
hPa
Press
MSL
hPa
Rain
since
9 am
mm
Dir
 
Spd
km/h
Gust
km/h
Spd
kts
Gust
kts
27/11:30am 9.4 6.0 5.9 79 1.6 W 13 26 7 14 1005.9 1005.7 1.4
27/11:12am 9.3 3.2 6.4 82 1.4 WNW 28 50 15 27 1006.6 1006.4 0.6
27/11:00am 11.7 7.1 8.2 79 1.8 W 22 35 12 19 1006.4 1006.2 0.0
27/10:30am 12.1 7.3 8.9 81 1.6 W 24 37 13 20 1006.6 1006.4 0.0
27/10:00am 11.9 8.0 9.6 86 1.2 W 20 32 11 17 1006.7 1006.5 0.0
27/09:30am 11.5 8.3 9.9 90 0.8 W 17 28 9 15 1006.6 1006.4 0.0
27/09:00am 11.1 8.0 10.3 95 0.4 W 17 24 9 13 1006.8 1006.6 17.4
27/08:30am 10.4 7.6 10.1 98 0.2 W 15 22 8 12 1006.8 1006.6 17.4
27/08:00am 10.3 7.5 10.1 99 0.1 NW 15 22 8 12 1006.8 1006.6 17.4
27/07:30am 9.6 5.7 9.3 98 0.2 NW 20 32 11 17 1007.0 1006.8 17.4
27/07:00am 10.9 5.4 10.6 98 0.2 WNW 30 48 16 26 1006.9 1006.7 14.6
27/06:35am 11.2 6.1 10.6 96 0.3 NW 28 46 15 25 1006.6 1006.4 11.8
27/06:30am 11.2 6.5 10.6 96 0.3 NW 26 41 14 22 1006.6 1006.4 11.8
27/06:00am 10.2 6.0 9.9 98 0.2 NW 22 39 12 21 1006.9 1006.7 11.8
27/05:30am 10.0 5.8 9.7 98 0.2 W 22 33 12 18 1007.2 1007.0 10.8
27/05:00am 10.0 6.2 9.7 98 0.2 WNW 20 39 11 21 1007.2 1007.0 6.4
27/04:30am 10.7 5.9 10.2 97 0.3 NNW 26 43 14 23 1007.7 1007.6 4.0
27/04:00am 11.5 7.6 10.7 95 0.4 NNW 22 32 12 17 1007.7 1007.6 1.0
27/03:30am 11.6 8.3 11.0 96 0.3 NNW 19 35 10 19 1008.2 1008.0 0.8
27/03:00am 11.3 8.3 10.8 97 0.3 NNW 17 30 9 16 1008.5 1008.3 0.8
27/02:30am 10.6 8.6 10.1 97 0.3 NNW 11 19 6 10 1009.1 1008.9 0.8
27/02:00am 10.2 8.8 9.7 97 0.3 NNW 7 13 4 7 1009.2 1009.0 0.8
27/01:30am 9.8 8.3 9.0 95 0.4 NNW 7 11 4 6 1009.6 1009.4 0.8
27/01:00am 9.8 8.2 8.7 93 0.5 NNW 7 13 4 7 1009.7 1009.5 0.8
27/12:30am 9.8 8.4 9.0 95 0.4 NW 6 9 3 5 1010.0 1009.8 0.8
27/12:00am 9.4 8.0 8.8 96 0.3 WNW 6 6 3 3 1010.4 1010.3 0.8
 
Date/Time
CST
Tmp

°C
App
Tmp
°C
Dew
Point
°C
Rel
Hum
%
Delta-T

°C
Wind Press
QNH
hPa
Press
MSL
hPa
Rain
since
9 am
mm
Dir
 
Spd
km/h
Gust
km/h
Spd
kts
Gust
kts
26/11:30pm 9.5 8.1 8.9 96 0.3 WNW 6 9 3 5 1010.5 1010.4 0.8
26/11:00pm 9.6 8.2 9.0 96 0.3 WNW 6 7 3 4 1010.7 1010.6 0.8
26/10:30pm 9.7 8.2 9.1 96 0.3 WNW 7 9 4 5 1010.9 1010.8 0.6
26/10:00pm 9.7 8.2 9.1 96 0.3 W 7 9 4 5 1011.3 1011.1 0.6
26/09:30pm 9.5 7.9 8.7 95 0.4 W 7 9 4 5 1011.4 1011.2 0.6
26/09:00pm 9.5 7.5 8.7 95 0.4 W 9 11 5 6 1011.5 1011.3 0.6
26/08:30pm 9.7 7.8 8.9 95 0.4 W 9 11 5 6 1011.5 1011.3 0.6
26/08:00pm 9.8 7.9 9.0 95 0.4 W 9 9 5 5 1011.4 1011.2 0.6
26/07:30pm 10.3 8.9 9.5 95 0.4 W 7 11 4 6 1011.1 1010.9 0.6
26/07:00pm 9.9 8.4 9.3 96 0.3 W 7 9 4 5 1010.9 1010.8 0.6
26/06:30pm 9.9 8.6 9.3 96 0.3 W 6 7 3 4 1010.7 1010.6 0.6
26/06:00pm 10.4 9.3 9.9 97 0.3 W 6 6 3 3 1010.3 1010.2 0.6
26/05:30pm 10.4 9.3 9.8 96 0.3 W 6 7 3 4 1010.1 1009.9 0.6
26/05:00pm 10.6 9.8 9.8 95 0.4 W 4 7 2 4 1010.0 1009.8 0.6
26/04:30pm 10.7 9.6 9.8 94 0.5 W 6 7 3 4 1009.7 1009.5 0.6
26/04:00pm 11.0 9.6 9.6 91 0.7 W 7 13 4 7 1009.5 1009.3 0.6
26/03:30pm 12.5 11.0 9.0 79 1.8 WSW 7 13 4 7 1009.3 1009.1 0.2
26/03:00pm 12.2 9.7 8.1 76 2.1 SW 11 19 6 10 1009.2 1009.0 0.2
26/02:30pm 12.3 9.3 7.8 74 2.2 WSW 13 20 7 11 1009.0 1008.8 0.2
26/02:00pm 12.6 10.4 9.2 80 1.7 W 11 17 6 9 1009.0 1008.8 0.2
26/01:30pm 11.4 9.4 10.1 92 0.7 WSW 11 19 6 10 1009.2 1009.0 0.2
26/01:00pm 12.4 9.5 8.1 75 2.2 WSW 13 20 7 11 1009.5 1009.3 0.0
26/12:30pm 13.0 10.0 7.7 70 2.7 WSW 13 22 7 12 1009.2 1009.0 0.0
26/12:00pm 12.8 10.3 8.1 73 2.4 SW 11 17 6 9 1009.3 1009.1 0.0
26/11:30am 12.8 9.9 8.1 73 2.4 WSW 13 20 7 11 1009.4 1009.2 0.0
26/11:00am 12.6 10.2 8.5 76 2.1 SW 11 17 6 9 1009.6 1009.4 0.0
26/10:30am 12.5 10.8 9.7 83 1.5 WSW 9 17 5 9 1009.6 1009.4 0.0
26/10:00am 11.9 9.5 8.6 80 1.7 SW 11 19 6 10 1009.6 1009.4 0.0
26/09:30am 11.5 9.3 9.2 86 1.2 WSW 11 19 6 10 1009.5 1009.3 0.0
26/09:00am 10.9 9.1 9.3 90 0.8 WSW 9 15 5 8 1009.1 1008.9 17.4
26/08:30am 10.2 8.2 8.8 91 0.7 WSW 9 13 5 7 1009.0 1008.8 17.4
26/08:00am 9.8 7.8 8.6 92 0.6 WSW 9 15 5 8 1008.8 1008.6 17.4
26/07:30am 9.4 7.2 8.0 91 0.7 WSW 9 17 5 9 1008.7 1008.5 17.4
26/07:00am 9.3 6.8 8.2 93 0.5 WSW 11 15 6 8 1008.5 1008.3 17.4
26/06:30am 9.0 7.0 8.6 97 0.2 SW 9 15 5 8 1008.2 1008.0 17.4
26/06:00am 9.6 7.4 9.3 98 0.2 SW 11 22 6 12 1007.8 1007.7 17.4
26/05:30am 9.0 7.4 8.7 98 0.1 SW 7 11 4 6 1007.6 1007.4 16.8
26/05:00am 9.6 7.4 9.5 99 0.1 SW 11 15 6 8 1007.4 1007.2 16.8
26/04:30am 10.3 8.3 10.3 100 0.0 SW 11 15 6 8 1007.3 1007.1 16.8
26/04:00am 10.3 8.7 10.3 100 0.0 SSW 9 11 5 6 1007.1 1006.9 16.8
26/03:30am 10.5 9.0 10.5 100 0.0 SSW 9 13 5 7 1007.1 1006.9 16.8
26/03:00am 10.9 8.4 10.9 100 0.0 SSW 15 22 8 12 1007.1 1006.9 16.8
26/02:30am 10.7 9.2 10.7 100 0.0 SSW 9 13 5 7 1007.0 1006.8 16.4
26/02:00am 9.8 8.1 9.8 100 0.0 S 9 13 5 7 1006.6 1006.4 16.2
26/01:30am 10.2 8.2 10.2 100 0.0 SSW 11 19 6 10 1006.8 1006.6 16.2
26/01:00am 10.4 8.5 10.4 100 0.0 SSW 11 13 6 7 1006.7 1006.5 16.2
26/12:30am 10.4 8.5 10.4 100 0.0 S 11 15 6 8 1006.5 1006.3 16.2
26/12:00am 10.9 9.9 10.9 100 0.0 SSW 7 11 4 6 1007.1 1006.9 16.2
 
Date/Time
CST
Tmp

°C
App
Tmp
°C
Dew
Point
°C
Rel
Hum
%
Delta-T

°C
Wind Press
QNH
hPa
Press
MSL
hPa
Rain
since
9 am
mm
Dir
 
Spd
km/h
Gust
km/h
Spd
kts
Gust
kts
25/11:30pm 11.1 10.1 11.1 100 0.0 SSW 7 9 4 5 1007.1 1006.9 16.2
25/11:00pm 11.5 10.6 11.5 100 0.0 SSW 7 13 4 7 1007.2 1007.0 16.2
25/10:30pm 11.5 10.6 11.5 100 0.0 SSW 7 9 4 5 1006.9 1006.7 16.2
25/10:00pm 11.8 10.7 11.8 100 0.0 S 9 13 5 7 1006.9 1006.7 16.2
25/09:30pm 12.2 11.2 12.2 100 0.0 SSW 9 13 5 7 1006.8 1006.6 16.2
25/09:00pm 12.1 11.4 12.1 100 0.0 S 7 9 4 5 1006.7 1006.5 16.2
25/08:30pm 12.2 10.8 12.2 100 0.0 SSW 11 13 6 7 1006.6 1006.4 16.2
25/08:00pm 12.5 12.0 12.5 100 0.0 SW 7 9 4 5 1006.9 1006.7 16.2
25/07:30pm 12.7 11.1 12.7 100 0.0 W 13 17 7 9 1007.0 1006.8 16.2
25/07:00pm 13.1 10.8 13.1 100 0.0 NW 17 26 9 14 1006.6 1006.4 15.8
25/06:30pm 12.9 10.2 12.9 100 0.0 NW 19 30 10 16 1006.2 1006.0 15.8
25/06:00pm 12.6 9.6 12.6 100 0.0 NNW 20 35 11 19 1006.0 1005.8 15.8
25/05:30pm 12.5 9.1 12.5 100 0.0 NW 22 39 12 21 1005.9 1005.7 15.2
25/05:00pm 12.5 9.1 12.5 100 0.0 NW 22 35 12 19 1006.0 1005.8 14.6
25/04:30pm 12.4 9.4 12.4 100 0.0 NNW 20 33 11 18 1005.8 1005.6 10.8
25/04:00pm 12.7 9.7 12.7 100 0.0 NW 20 35 11 19 1005.9 1005.7 10.6
25/03:30pm 12.5 9.1 12.5 100 0.0 NNW 22 35 12 19 1005.9 1005.7 10.6
25/03:00pm 12.4 10.3 12.4 100 0.0 NNW 15 32 8 17 1006.2 1006.0 8.6
25/02:30pm 12.1 9.5 12.1 100 0.0 NW 17 32 9 17 1005.9 1005.7 7.0
25/02:00pm 12.0 9.4 12.0 100 0.0 NW 17 28 9 15 1006.4 1006.2 5.8
25/01:30pm 11.7 9.0 11.7 100 0.0 NW 17 32 9 17 1006.4 1006.2 4.0
25/01:00pm 11.6 9.3 11.6 100 0.0 NW 15 32 8 17 1006.6 1006.4 3.6
25/12:30pm 11.6 9.6 11.6 100 0.0 NW 13 30 7 16 1007.1 1006.9 3.4
25/12:00pm 11.5 9.5 11.5 100 0.0 NW 13 26 7 14 1007.5 1007.3 3.4
25/11:30am 11.4 10.1 11.2 99 0.1 NW 9 24 5 13 1008.6 1008.4 3.0
25/11:00am 11.1 8.9 10.9 99 0.1 NW 13 24 7 13 1009.4 1009.2 3.0
25/10:30am 11.0 8.4 10.7 98 0.2 NW 15 33 8 18 1009.9 1009.7 1.0
25/10:00am 11.0 8.8 10.7 98 0.2 NW 13 24 7 13 1009.6 1009.4 0.6
25/09:30am 11.0 8.8 10.7 98 0.2 NW 13 26 7 14 1010.3 1010.2 0.4
25/09:00am 10.7 9.1 10.2 97 0.3 NW 9 24 5 13 1010.2 1010.1 9.4
25/08:30am 10.8 8.8 10.2 96 0.3 NW 11 28 6 15 1010.9 1010.8 9.0
25/08:00am 10.9 9.0 10.4 97 0.3 NW 11 24 6 13 1010.9 1010.8 7.0
25/07:30am 10.5 8.5 10.0 97 0.3 NW 11 22 6 12 1010.9 1010.8 5.0
25/07:00am 11.0 9.5 10.4 96 0.3 NW 9 22 5 12 1010.7 1010.6 3.6
25/06:30am 11.2 10.7 10.7 97 0.3 NW 4 9 2 5 1010.8 1010.7 3.0
25/06:00am 10.9 9.6 10.1 95 0.4 NNW 7 15 4 8 1011.1 1010.9 2.6
25/05:30am 10.8 9.5 10.0 95 0.4 NW 7 15 4 8 1011.1 1010.9 2.6
25/05:00am 10.8 8.6 9.2 90 0.8 NW 11 20 6 11 1011.4 1011.2 1.6
25/04:30am 10.9 8.2 8.8 87 1.1 NNW 13 20 7 11 1012.0 1011.8 1.2
25/04:00am 11.6 8.7 8.1 79 1.7 NW 13 24 7 13 1012.1 1011.9 0.4
25/03:30am 11.9 10.2 7.6 75 2.1 N 6 11 3 6 1011.6 1011.4 0.2
25/03:00am 12.1 10.2 6.6 69 2.7 NNE 6 9 3 5 1012.5 1012.3 0.2
25/02:30am 12.4 9.9 6.5 67 2.9 NNW 9 17 5 9 1013.1 1013.0 0.2
25/02:00am 12.0 10.2 5.6 65 3.0 NNW 4 11 2 6 1013.3 1013.2 0.0
25/01:30am 13.1 10.3 3.2 51 4.5 NW 7 15 4 8 1012.8 1012.7 0.0
25/01:00am 13.2 9.7 1.5 45 5.1 NW 9 20 5 11 1012.3 1012.1 0.0
25/12:30am 12.8 10.1 2.6 50 4.6 NW 6 13 3 7 1013.0 1012.9 0.0
25/12:00am 12.8 10.3 4.0 55 4.1 NW 6 13 3 7 1013.4 1013.3 0.0
 
Date/Time
CST
Tmp

°C
App
Tmp
°C
Dew
Point
°C
Rel
Hum
%
Delta-T

°C
Wind Press
QNH
hPa
Press
MSL
hPa
Rain
since
9 am
mm
Dir
 
Spd
km/h
Gust
km/h
Spd
kts
Gust
kts
24/11:30pm 13.1 10.6 4.8 57 3.9 NW 7 19 4 10 1013.6 1013.5 0.0
24/11:00pm 13.0 10.5 4.9 58 3.8 NW 7 19 4 10 1013.5 1013.4 0.0
24/10:30pm 12.8 10.6 5.2 60 3.6 NW 6 13 3 7 1014.0 1013.9 0.0
24/10:00pm 12.9 11.3 6.3 64 3.2 SSW 4 13 2 7 1014.5 1014.3 0.0
24/09:30pm 12.7 10.6 5.8 63 3.3 NW 6 11 3 6 1014.7 1014.5 0.0
24/09:00pm 12.3 10.6 5.9 65 3.1 S 4 6 2 3 1015.0 1014.8 0.0
24/08:30pm 12.1 10.6 6.6 69 2.7 NW 4 7 2 4 1015.5 1015.4 0.0
24/08:00pm 11.7 10.5 6.4 70 2.6 N 2 4 1 2 1015.8 1015.7 0.0
24/07:30pm 11.5 10.2 6.2 70 2.5 N 2 6 1 3 1016.1 1016.0 0.0
24/07:00pm 11.6 10.8 6.3 70 2.5 CALM 0 2 0 1 1016.2 1016.1 0.0
24/06:30pm 11.9 10.6 6.2 68 2.7 N 2 6 1 3 1016.2 1016.1 0.0
24/06:00pm 12.0 10.4 6.5 69 2.7 N 4 6 2 3 1016.4 1016.3 0.0
24/05:30pm 12.4 11.3 6.9 69 2.7 NNW 2 7 1 4 1016.3 1016.2 0.0
24/05:00pm 12.9 11.6 7.8 71 2.6 NW 4 6 2 3 1016.4 1016.3 0.0
24/04:30pm 14.9 13.3 8.2 64 3.4 NNW 6 17 3 9 1016.7 1016.6 0.0
24/04:00pm 15.2 13.8 9.6 69 2.9 NW 7 17 4 9 1016.9 1016.8 0.0
24/03:30pm 15.3 14.0 9.9 70 2.9 NW 7 19 4 10 1017.0 1016.9 0.0
24/03:00pm 15.4 14.1 10.0 70 2.9 N 7 15 4 8 1017.5 1017.3 0.0
24/02:30pm 15.5 14.2 10.1 70 2.9 NNW 7 17 4 9 1017.8 1017.7 0.0
24/02:00pm 15.6 14.9 11.4 76 2.3 NW 6 13 3 7 1018.1 1018.0 0.0
24/01:30pm 15.2 14.4 11.0 76 2.3 N 6 11 3 6 1018.5 1018.4 0.0
24/01:00pm 14.9 14.0 11.3 79 2.0 N 7 13 4 7 1018.9 1018.8 0.0
24/12:30pm 14.7 14.0 11.3 80 1.8 NNW 6 15 3 8 1019.6 1019.5 0.0
24/12:00pm 14.7 13.6 11.8 83 1.6 NNW 9 17 5 9 1019.8 1019.7 0.0

Latest Capital City Observations: Canberra | Sydney | Melbourne | Brisbane | Adelaide | Perth | Hobart | Darwin

Other Formats:

Comma delimited format used in spreadsheet applications
http://www.bom.gov.au/fwo/IDS60901/IDS60901.94811.axf

JavaScript Object Notation format (JSON) in row-major order
http://www.bom.gov.au/fwo/IDS60901/IDS60901.94811.json